createdAt,value
2017-08-06T00:02:49.374Z,14.70
2017-08-06T00:05:18.339Z,14.60
2017-08-06T00:07:47.273Z,14.60
2017-08-06T00:10:29.251Z,14.50
2017-08-06T00:12:58.185Z,14.40
2017-08-06T00:15:27.134Z,14.50
2017-08-06T00:17:56.098Z,14.50
2017-08-06T00:23:19.951Z,14.50
2017-08-06T00:25:48.892Z,14.50
2017-08-06T00:28:17.838Z,14.50
2017-08-06T00:30:46.808Z,14.40
2017-08-06T00:33:15.780Z,14.30
2017-08-06T00:35:44.745Z,14.40
2017-08-06T00:38:13.698Z,14.40
2017-08-06T00:43:44.568Z,14.30
2017-08-06T00:46:13.539Z,14.20
2017-08-06T00:48:42.487Z,14.20
2017-08-06T00:51:11.430Z,14.30
2017-08-06T00:53:40.401Z,14.20
2017-08-06T00:56:09.386Z,14.20
2017-08-06T00:58:38.496Z,14.20
2017-08-06T01:01:07.468Z,14.10
2017-08-06T01:03:36.416Z,14.10
2017-08-06T01:06:05.393Z,14.00
2017-08-06T01:08:34.406Z,14.10
2017-08-06T01:11:03.343Z,14.20
2017-08-06T01:13:32.304Z,14.30
2017-08-06T01:16:01.242Z,14.10
2017-08-06T01:18:30.205Z,14.00
2017-08-06T01:20:59.236Z,14.00
2017-08-06T01:23:28.182Z,13.90
2017-08-06T01:25:57.134Z,13.90
2017-08-06T02:37:56.700Z,13.50
2017-08-06T02:40:25.678Z,13.50
2017-08-06T02:42:54.637Z,13.50
2017-08-06T02:45:23.612Z,13.50
2017-08-06T02:47:52.547Z,13.50
2017-08-06T02:50:21.492Z,13.50
2017-08-06T02:52:50.541Z,13.50
2017-08-06T02:55:19.523Z,13.50
2017-08-06T03:19:10.922Z,13.40
2017-08-06T03:27:28.392Z,13.10
2017-08-06T03:29:57.359Z,13.10
2017-08-06T03:32:26.346Z,13.00
2017-08-06T03:34:55.284Z,13.00
2017-08-06T03:37:24.307Z,13.00
2017-08-06T03:39:53.269Z,13.00
2017-08-06T03:42:22.241Z,13.00
2017-08-06T03:44:51.180Z,13.10
2017-08-06T03:47:20.144Z,13.10
2017-08-06T03:49:49.169Z,13.00
2017-08-06T03:52:18.142Z,13.00
2017-08-06T03:54:47.087Z,13.00
2017-08-06T03:57:16.060Z,13.00
2017-08-06T04:02:50.228Z,12.80
2017-08-06T04:05:19.218Z,12.70
2017-08-06T04:07:48.152Z,12.80
2017-08-06T04:10:17.238Z,12.80
2017-08-06T04:12:46.217Z,12.80
2017-08-06T04:15:15.187Z,12.80
2017-08-06T04:17:44.161Z,12.80
2017-08-06T04:20:13.121Z,12.90
2017-08-06T04:22:42.064Z,12.80
2017-08-06T04:25:11.026Z,12.90
2017-08-06T04:27:39.986Z,12.90
2017-08-06T04:30:08.912Z,12.80
2017-08-06T04:32:37.871Z,12.80
2017-08-06T04:35:06.825Z,12.70
2017-08-06T04:37:35.833Z,12.80
2017-08-06T04:51:39.050Z,12.80
2017-08-06T04:54:08.085Z,12.90
2017-08-06T04:56:37.050Z,13.00
2017-08-06T04:59:05.992Z,13.00
2017-08-06T05:04:28.734Z,13.10
2017-08-06T05:06:57.708Z,13.10
2017-08-06T05:09:26.663Z,13.10
2017-08-06T05:11:55.629Z,13.30
2017-08-06T05:14:24.668Z,13.30
2017-08-06T05:16:53.675Z,13.40
2017-08-06T05:19:22.645Z,13.30
2017-08-06T05:21:51.615Z,13.30
2017-08-06T05:24:20.640Z,13.30
2017-08-06T05:26:49.816Z,13.40
2017-08-06T05:29:18.755Z,13.60
2017-08-06T05:31:47.713Z,13.60
2017-08-06T05:34:16.676Z,13.80
2017-08-06T05:36:47.303Z,13.90
2017-08-06T05:39:16.250Z,14.00
2017-08-06T05:41:45.192Z,13.90
2017-08-06T05:44:14.161Z,14.10
2017-08-06T05:46:43.128Z,14.20
2017-08-06T05:49:12.096Z,14.20
2017-08-06T05:52:08.437Z,14.40
2017-08-06T06:03:56.432Z,14.40
2017-08-06T06:06:25.426Z,14.60
2017-08-06T06:08:54.378Z,14.80
2017-08-06T06:11:23.344Z,14.80
2017-08-06T06:13:54.204Z,14.70
2017-08-06T06:16:33.734Z,14.90
2017-08-06T06:22:11.378Z,15.10
2017-08-06T06:24:40.328Z,15.10
2017-08-06T06:27:09.304Z,15.20
2017-08-06T06:29:38.769Z,15.20
2017-08-06T06:32:07.764Z,15.30
2017-08-06T06:34:36.831Z,15.50
2017-08-06T06:37:05.840Z,15.40
2017-08-06T06:39:34.863Z,15.40
2017-08-06T06:42:03.847Z,15.40
2017-08-06T06:44:32.807Z,15.70
2017-08-06T06:47:01.805Z,15.80
2017-08-06T06:49:30.776Z,15.80
2017-08-06T06:51:59.766Z,15.90
2017-08-06T06:54:28.731Z,16.00
2017-08-06T06:56:57.680Z,16.20
2017-08-06T06:59:26.652Z,16.20
2017-08-06T07:01:55.596Z,16.20
2017-08-06T07:04:24.556Z,16.10
2017-08-06T07:06:53.548Z,16.20
2017-08-06T07:09:22.492Z,16.40
2017-08-06T07:11:51.475Z,16.70
2017-08-06T07:14:20.475Z,16.70
2017-08-06T07:16:49.415Z,16.80
2017-08-06T07:19:18.442Z,16.80
2017-08-06T07:21:47.380Z,16.70
2017-08-06T07:24:16.357Z,16.90
2017-08-06T07:26:45.373Z,17.00
2017-08-06T07:29:14.327Z,16.90
2017-08-06T07:31:43.331Z,17.00
2017-08-06T07:34:12.314Z,17.20
2017-08-06T07:36:41.267Z,17.30
2017-08-06T07:39:10.233Z,17.00
2017-08-06T07:41:47.323Z,16.90
2017-08-06T07:44:17.260Z,17.00
2017-08-06T07:46:46.321Z,17.10
2017-08-06T07:49:15.278Z,17.10
2017-08-06T07:51:44.244Z,17.30
2017-08-06T07:54:13.203Z,17.20
2017-08-06T08:00:10.440Z,17.60
2017-08-06T08:06:10.612Z,17.70
2017-08-06T08:17:44.252Z,17.80
2017-08-06T08:20:13.220Z,17.90
2017-08-06T08:22:43.076Z,18.20
2017-08-06T08:25:12.064Z,18.10
2017-08-06T08:27:41.105Z,18.30
2017-08-06T08:30:10.091Z,18.50
2017-08-06T08:32:39.912Z,18.60
2017-08-06T08:35:08.871Z,18.60
2017-08-06T08:37:37.801Z,18.80
2017-08-06T08:52:21.018Z,18.40
2017-08-06T08:54:49.983Z,19.00
2017-08-06T08:57:19.004Z,19.00
2017-08-06T08:59:48.021Z,19.00
2017-08-06T09:02:16.971Z,19.20
2017-08-06T09:04:46.466Z,19.50
2017-08-06T09:07:16.045Z,19.40
2017-08-06T09:09:45.137Z,19.30
2017-08-06T09:12:14.103Z,19.10
2017-08-06T09:14:43.046Z,19.40
2017-08-06T09:17:11.991Z,19.70
2017-08-06T09:19:41.010Z,19.70
2017-08-06T09:22:09.948Z,20.10
2017-08-06T09:24:38.926Z,20.50
2017-08-06T09:27:07.896Z,20.30
2017-08-06T09:29:37.771Z,20.40
2017-08-06T09:32:07.016Z,20.30
2017-08-06T09:34:36.008Z,19.80
2017-08-06T09:37:04.949Z,19.80
2017-08-06T09:39:33.918Z,19.80
2017-08-06T09:42:02.894Z,19.90
2017-08-06T09:44:31.889Z,20.30
2017-08-06T09:47:00.819Z,20.70
2017-08-06T09:49:29.815Z,20.70
2017-08-06T09:51:58.929Z,20.60
2017-08-06T09:54:27.935Z,20.80
2017-08-06T09:56:56.881Z,21.00
2017-08-06T09:59:25.854Z,21.30
2017-08-06T10:01:54.825Z,21.30
2017-08-06T10:04:24.661Z,21.20
2017-08-06T10:06:53.606Z,20.90
2017-08-06T10:09:22.618Z,20.70
2017-08-06T10:11:51.565Z,20.70
2017-08-06T10:14:20.493Z,20.60
2017-08-06T10:16:49.466Z,20.50
2017-08-06T10:19:18.424Z,20.50
2017-08-06T10:21:47.386Z,20.50
2017-08-06T10:24:16.340Z,20.50
2017-08-06T10:26:45.332Z,20.50
2017-08-06T10:29:14.273Z,20.30
2017-08-06T10:31:43.249Z,20.10
2017-08-06T10:34:12.212Z,20.30
2017-08-06T10:36:41.179Z,20.70
2017-08-06T10:39:10.136Z,21.20
2017-08-06T10:41:39.095Z,21.60
2017-08-06T10:44:08.056Z,22.00
2017-08-06T10:46:37.014Z,21.80
2017-08-06T10:49:05.958Z,21.80
2017-08-06T10:51:34.929Z,21.60
2017-08-06T10:54:03.872Z,21.40
2017-08-06T10:56:32.882Z,21.50
2017-08-06T10:59:01.826Z,21.70
2017-08-06T11:01:30.743Z,22.10
2017-08-06T11:03:59.754Z,22.20
2017-08-06T11:06:28.724Z,21.80
2017-08-06T11:08:57.663Z,21.90
2017-08-06T11:11:26.634Z,22.20
2017-08-06T11:13:55.584Z,22.20
2017-08-06T11:16:24.647Z,22.50
2017-08-06T11:18:53.593Z,22.30
2017-08-06T11:21:22.599Z,22.00
2017-08-06T11:23:51.545Z,21.60
2017-08-06T11:26:20.530Z,21.20
2017-08-06T11:28:49.490Z,21.60
2017-08-06T11:31:18.465Z,22.20
2017-08-06T11:33:47.460Z,22.20
2017-08-06T11:36:16.462Z,22.60
2017-08-06T11:38:45.409Z,22.90
2017-08-06T11:41:14.392Z,23.50
2017-08-06T11:43:43.334Z,24.00
2017-08-06T11:46:12.318Z,24.30
2017-08-06T11:48:41.294Z,24.40
2017-08-06T11:51:10.231Z,24.60
2017-08-06T11:53:39.198Z,24.40
2017-08-06T11:56:08.175Z,24.40
2017-08-06T11:58:37.227Z,24.20
2017-08-06T12:01:06.191Z,24.60
2017-08-06T12:03:35.135Z,25.10
2017-08-06T12:06:04.101Z,25.60
2017-08-06T12:08:33.048Z,25.70
2017-08-06T12:11:06.051Z,24.90
2017-08-06T12:13:35.002Z,24.70
2017-08-06T12:16:03.963Z,23.50
2017-08-06T12:18:32.961Z,22.90
2017-08-06T12:21:01.912Z,22.60
2017-08-06T12:23:30.886Z,23.40
2017-08-06T12:25:59.835Z,23.50
2017-08-06T12:28:28.796Z,23.20
2017-08-06T12:30:57.764Z,23.70
2017-08-06T12:33:26.699Z,23.70
2017-08-06T12:35:55.683Z,23.20
2017-08-06T12:38:24.628Z,23.10
2017-08-06T12:40:53.586Z,22.50
2017-08-06T12:43:22.527Z,22.40
2017-08-06T12:45:51.493Z,22.30
2017-08-06T12:48:20.440Z,21.90
2017-08-06T12:50:49.428Z,21.80
2017-08-06T12:53:18.532Z,21.80
2017-08-06T12:55:47.595Z,22.80
2017-08-06T12:58:16.919Z,24.20
2017-08-06T13:00:45.931Z,25.50
2017-08-06T13:03:14.918Z,26.60
2017-08-06T13:05:43.850Z,27.90
2017-08-06T13:08:12.828Z,27.20
2017-08-06T13:10:41.781Z,25.50
2017-08-06T13:13:10.779Z,24.80
2017-08-06T13:15:39.758Z,24.60
2017-08-06T13:18:08.719Z,25.10
2017-08-06T13:20:37.684Z,25.90
2017-08-06T13:23:06.674Z,25.70
2017-08-06T13:25:35.652Z,25.20
2017-08-06T13:28:04.619Z,24.80
2017-08-06T13:30:33.587Z,25.00
2017-08-06T13:33:02.549Z,25.30
2017-08-06T13:35:31.488Z,25.80
2017-08-06T13:38:00.483Z,25.10
2017-08-06T13:40:29.501Z,24.70
2017-08-06T13:42:58.443Z,24.20
2017-08-06T13:45:27.390Z,23.60
2017-08-06T13:47:56.368Z,23.50
2017-08-06T13:50:25.336Z,23.90
2017-08-06T13:52:54.303Z,23.70
2017-08-06T13:55:23.255Z,23.80
2017-08-06T13:57:52.236Z,24.40
2017-08-06T14:00:21.185Z,26.60
2017-08-06T14:02:50.145Z,27.50
2017-08-06T14:05:19.151Z,28.90
2017-08-06T14:07:48.221Z,28.10
2017-08-06T14:10:17.217Z,26.30
2017-08-06T14:12:46.195Z,25.40
2017-08-06T14:15:15.193Z,24.90
2017-08-06T14:17:44.162Z,26.20
2017-08-06T14:20:13.253Z,27.30
2017-08-06T14:22:42.235Z,28.50
2017-08-06T14:25:11.204Z,28.70
2017-08-06T14:27:40.167Z,27.40
2017-08-06T14:30:09.179Z,26.70
2017-08-06T14:32:38.140Z,26.00
2017-08-06T14:35:07.119Z,25.40
2017-08-06T14:37:36.078Z,25.40
2017-08-06T14:40:18.529Z,26.10
2017-08-06T14:42:47.487Z,26.70
2017-08-06T14:45:16.461Z,27.40
2017-08-06T14:47:45.409Z,25.90
2017-08-06T14:50:14.372Z,24.90
2017-08-06T14:52:43.316Z,24.40
2017-08-06T14:55:12.284Z,24.10
2017-08-06T14:57:41.245Z,23.60
2017-08-06T15:00:10.236Z,23.40
2017-08-06T15:02:39.188Z,23.50
2017-08-06T15:05:08.133Z,23.00
2017-08-06T15:07:37.158Z,23.00
2017-08-06T15:10:06.124Z,22.90
2017-08-06T15:12:35.058Z,22.80
2017-08-06T15:15:04.029Z,22.90
2017-08-06T15:17:33.156Z,23.00
2017-08-06T15:20:02.104Z,23.20
2017-08-06T15:22:31.054Z,23.00
2017-08-06T15:25:00.019Z,22.70
2017-08-06T15:27:28.994Z,22.80
2017-08-06T15:29:57.967Z,23.00
2017-08-06T15:32:26.924Z,23.20
2017-08-06T15:34:55.902Z,22.90
2017-08-06T15:37:24.854Z,23.00
2017-08-06T15:39:53.833Z,23.00
2017-08-06T15:42:22.765Z,22.90
2017-08-06T15:44:51.731Z,22.80
2017-08-06T15:47:20.697Z,22.70
2017-08-06T15:49:49.671Z,22.60
2017-08-06T15:52:18.649Z,22.70
2017-08-06T15:54:47.653Z,22.80
2017-08-06T15:57:16.615Z,23.00
2017-08-06T15:59:45.567Z,23.20
2017-08-06T16:02:14.553Z,23.30
2017-08-06T16:04:43.520Z,23.30
2017-08-06T16:07:12.533Z,23.30
2017-08-06T16:09:41.552Z,22.90
2017-08-06T16:12:10.593Z,22.70
2017-08-06T16:14:39.598Z,22.60
2017-08-06T16:17:08.627Z,22.80
2017-08-06T16:19:37.689Z,22.90
2017-08-06T16:22:06.732Z,23.10
2017-08-06T16:24:35.748Z,22.80
2017-08-06T16:27:04.754Z,22.90
2017-08-06T16:29:33.798Z,22.60
2017-08-06T16:32:03.259Z,22.60
2017-08-06T16:34:32.317Z,22.40
2017-08-06T16:37:01.299Z,22.20
2017-08-06T16:39:30.325Z,22.30
2017-08-06T16:41:59.342Z,22.60
2017-08-06T16:44:28.367Z,23.10
2017-08-06T16:46:59.994Z,23.30
2017-08-06T16:49:28.992Z,23.20
2017-08-06T16:51:57.998Z,22.80
2017-08-06T16:54:27.005Z,22.50
2017-08-06T16:56:56.014Z,22.30
2017-08-06T16:59:25.179Z,22.10
2017-08-06T17:01:54.285Z,22.30
2017-08-06T17:04:23.318Z,22.30
2017-08-06T17:06:52.403Z,22.30
2017-08-06T17:09:32.804Z,22.40
2017-08-06T17:12:01.595Z,22.30
2017-08-06T17:14:30.609Z,22.10
2017-08-06T17:16:59.614Z,21.80
2017-08-06T17:19:28.619Z,21.50
2017-08-06T17:21:57.588Z,21.40
2017-08-06T17:24:26.652Z,21.40
2017-08-06T17:26:55.653Z,21.20
2017-08-06T17:29:24.741Z,21.20
2017-08-06T17:31:53.708Z,21.10
2017-08-06T17:34:22.739Z,21.20
2017-08-06T17:36:51.711Z,21.30
2017-08-06T17:39:20.725Z,21.30
2017-08-06T17:41:49.668Z,21.40
2017-08-06T17:44:18.637Z,21.40
2017-08-06T17:46:47.603Z,21.40
2017-08-06T17:49:16.594Z,21.40
2017-08-06T17:51:45.569Z,21.40
2017-08-06T17:54:14.571Z,21.40
2017-08-06T17:56:43.511Z,21.60
2017-08-06T17:59:12.468Z,21.80
2017-08-06T18:01:41.471Z,21.90
2017-08-06T18:04:10.544Z,21.90
2017-08-06T18:06:39.532Z,21.90
2017-08-06T18:09:08.532Z,21.90
2017-08-06T18:11:37.507Z,21.90
2017-08-06T18:14:06.502Z,21.80
2017-08-06T18:16:35.525Z,21.70
2017-08-06T18:19:04.500Z,21.70
2017-08-06T18:21:33.568Z,21.70
2017-08-06T18:24:02.639Z,21.60
2017-08-06T18:26:31.568Z,21.40
2017-08-06T18:29:00.554Z,21.40
2017-08-06T18:31:29.514Z,21.30
2017-08-06T18:33:58.516Z,21.40
2017-08-06T18:36:27.492Z,21.30
2017-08-06T18:38:56.466Z,21.20
2017-08-06T18:41:25.476Z,21.10
2017-08-06T18:43:54.407Z,21.00
2017-08-06T18:46:23.633Z,20.90
2017-08-06T18:48:52.632Z,20.90
2017-08-06T18:51:21.609Z,20.90
2017-08-06T18:53:50.608Z,20.90
2017-08-06T18:56:19.577Z,20.70
2017-08-06T18:58:48.616Z,20.70
2017-08-06T19:01:17.659Z,20.70
2017-08-06T19:03:46.626Z,20.70
2017-08-06T19:06:15.664Z,20.50
2017-08-06T19:08:44.646Z,20.50
2017-08-06T19:11:13.651Z,20.40
2017-08-06T19:13:42.631Z,20.30
2017-08-06T19:16:11.653Z,20.30
2017-08-06T19:18:40.723Z,20.20
2017-08-06T19:21:09.671Z,20.10
2017-08-06T19:23:38.673Z,20.10
2017-08-06T19:26:07.639Z,20.00
2017-08-06T19:28:36.643Z,19.90
2017-08-06T19:31:05.603Z,19.90
2017-08-06T19:33:34.593Z,19.70
2017-08-06T19:36:03.550Z,19.80
2017-08-06T19:38:32.680Z,19.70
2017-08-06T19:41:01.684Z,19.60
2017-08-06T19:43:30.749Z,19.50
2017-08-06T19:45:59.756Z,19.40
2017-08-06T19:48:28.754Z,19.50
2017-08-06T19:50:57.730Z,19.50
2017-08-06T19:53:26.842Z,19.40
2017-08-06T19:55:55.867Z,19.40
2017-08-06T19:58:24.864Z,19.40
2017-08-06T20:00:53.823Z,19.40
2017-08-06T20:03:22.826Z,19.40
2017-08-06T20:05:51.779Z,19.40
2017-08-06T20:08:20.763Z,19.50
2017-08-06T20:10:49.776Z,19.40
2017-08-06T20:13:18.755Z,17.20
2017-08-06T20:15:47.770Z,19.40
2017-08-06T20:18:16.731Z,19.50
2017-08-06T20:20:45.675Z,19.40
2017-08-06T20:23:14.786Z,19.50
2017-08-06T20:25:43.740Z,19.60
2017-08-06T20:28:12.737Z,19.50
2017-08-06T20:30:41.685Z,19.50
2017-08-06T20:33:10.665Z,19.40
2017-08-06T20:35:39.623Z,19.40
2017-08-06T20:38:08.562Z,19.30
2017-08-06T20:40:37.558Z,19.20
2017-08-06T20:43:06.501Z,19.20
2017-08-06T20:45:35.470Z,19.00
2017-08-06T20:48:04.441Z,18.80
2017-08-06T20:50:33.406Z,18.40
2017-08-06T20:53:02.357Z,18.20
2017-08-06T20:55:31.367Z,18.30
2017-08-06T20:58:00.320Z,18.20
2017-08-06T21:00:29.260Z,18.10
2017-08-06T21:02:58.224Z,18.00
2017-08-06T21:05:27.243Z,17.90
2017-08-06T21:07:56.189Z,17.80
2017-08-06T21:10:25.187Z,17.70
2017-08-06T21:12:54.129Z,17.60
2017-08-06T21:15:23.110Z,17.60
2017-08-06T21:17:52.060Z,17.50
2017-08-06T21:20:21.054Z,17.50
2017-08-06T21:22:50.000Z,17.50
2017-08-06T21:25:18.977Z,17.40
2017-08-06T21:27:47.936Z,17.30
2017-08-06T21:30:16.934Z,17.10
2017-08-06T21:32:45.889Z,17.00
2017-08-06T21:35:15.453Z,17.00
2017-08-06T21:37:44.424Z,17.10
2017-08-06T21:40:13.400Z,16.90
2017-08-06T21:42:42.376Z,16.90
2017-08-06T21:45:11.349Z,16.90
2017-08-06T21:47:40.351Z,16.90
2017-08-06T21:50:10.048Z,16.60
2017-08-06T21:52:39.003Z,16.50
2017-08-06T21:55:08.319Z,16.40
2017-08-06T21:57:37.454Z,16.40
2017-08-06T22:00:06.453Z,16.50
2017-08-06T22:02:35.411Z,16.50
2017-08-06T22:05:04.378Z,16.50
2017-08-06T22:07:33.353Z,16.40
2017-08-06T22:28:59.630Z,16.10
2017-08-06T22:31:28.660Z,15.90
2017-08-06T22:45:56.144Z,15.80
2017-08-06T22:48:27.077Z,15.80
2017-08-06T23:02:41.416Z,15.50
2017-08-06T23:05:10.373Z,15.50
